createdAt,value
2023-02-05T00:01:50.599Z,99.99
2023-02-05T00:04:20.984Z,99.99
2023-02-05T00:06:52.839Z,99.99
2023-02-05T00:09:22.815Z,99.99
2023-02-05T00:11:52.659Z,99.99
2023-02-05T00:14:22.895Z,99.99
2023-02-05T00:16:54.064Z,99.99
2023-02-05T00:19:24.222Z,99.99
2023-02-05T00:21:54.239Z,99.99
2023-02-05T00:24:24.314Z,99.99
2023-02-05T00:26:54.461Z,99.99
2023-02-05T00:29:25.984Z,99.99
2023-02-05T00:31:56.842Z,99.99
2023-02-05T00:34:27.020Z,99.99
2023-02-05T00:36:57.235Z,99.99
2023-02-05T00:39:28.102Z,99.99
2023-02-05T00:41:58.244Z,99.99
2023-02-05T00:44:28.288Z,99.99
2023-02-05T00:46:58.286Z,99.99
2023-02-05T00:49:28.547Z,99.99
2023-02-05T00:51:58.544Z,99.99
2023-02-05T00:54:28.582Z,99.99
2023-02-05T00:56:59.879Z,99.99
2023-02-05T00:59:29.928Z,99.99
2023-02-05T01:02:00.300Z,99.99
2023-02-05T01:04:30.319Z,99.99
2023-02-05T01:07:00.376Z,99.99
2023-02-05T01:09:30.586Z,99.99
2023-02-05T01:12:01.414Z,99.99
2023-02-05T01:14:32.834Z,99.99
2023-02-05T01:17:02.737Z,99.99
2023-02-05T01:19:34.598Z,99.99
2023-02-05T01:22:05.128Z,99.99
2023-02-05T01:24:35.691Z,99.99
2023-02-05T01:27:05.932Z,99.99
2023-02-05T01:29:35.994Z,99.99
2023-02-05T01:32:06.989Z,99.99
2023-02-05T01:34:37.101Z,99.99
2023-02-05T01:37:07.256Z,99.99
2023-02-05T01:39:38.560Z,99.99
2023-02-05T01:42:21.618Z,99.99
2023-02-05T01:45:23.488Z,99.99
2023-02-05T01:47:57.087Z,99.99
2023-02-05T01:50:31.570Z,99.99
2023-02-05T01:53:09.323Z,99.99
2023-02-05T01:55:51.570Z,99.99
2023-02-05T01:58:21.816Z,99.99
2023-02-05T02:00:51.938Z,99.99
2023-02-05T02:03:24.647Z,99.99
2023-02-05T02:05:55.121Z,99.99
2023-02-05T02:08:25.475Z,99.99
2023-02-05T02:11:00.173Z,99.99
2023-02-05T02:13:32.932Z,99.99
2023-02-05T02:16:08.286Z,99.99
2023-02-05T02:18:39.701Z,99.99
2023-02-05T02:21:09.913Z,99.99
2023-02-05T02:24:03.112Z,99.99
2023-02-05T02:26:43.697Z,99.99
2023-02-05T02:29:20.445Z,99.99
2023-02-05T02:32:02.825Z,99.99
2023-02-05T02:34:39.590Z,99.99
2023-02-05T02:37:22.513Z,99.99
2023-02-05T02:40:02.548Z,99.99
2023-02-05T02:42:44.402Z,99.99
2023-02-05T02:45:16.090Z,99.99
2023-02-05T02:47:53.946Z,99.99
2023-02-05T02:50:36.535Z,99.99
2023-02-05T02:53:37.629Z,99.99
2023-02-05T02:56:09.487Z,99.99
2023-02-05T02:59:11.525Z,99.99
2023-02-05T03:01:49.622Z,99.99
2023-02-05T03:04:29.236Z,99.99
2023-02-05T03:07:16.309Z,99.99
2023-02-05T03:10:03.547Z,99.99
2023-02-05T03:12:33.605Z,99.99
2023-02-05T03:15:04.449Z,99.99
2023-02-05T03:17:36.340Z,99.99
2023-02-05T03:20:24.157Z,99.99
2023-02-05T03:22:54.776Z,99.99
2023-02-05T03:25:31.462Z,99.99
2023-02-05T03:28:03.588Z,99.99
2023-02-05T03:30:50.610Z,99.99
2023-02-05T03:33:48.585Z,99.99
2023-02-05T03:36:31.441Z,99.99
2023-02-05T03:39:11.754Z,99.99
2023-02-05T03:41:57.215Z,99.99
2023-02-05T03:44:47.055Z,99.99
2023-02-05T03:47:37.748Z,99.99
2023-02-05T03:50:12.522Z,99.99
2023-02-05T03:52:57.635Z,99.99
2023-02-05T03:55:37.846Z,99.99
2023-02-05T03:58:23.460Z,99.99
2023-02-05T04:00:53.664Z,99.99
2023-02-05T04:03:24.445Z,99.99
2023-02-05T04:05:55.772Z,99.99
2023-02-05T04:08:25.957Z,99.99
2023-02-05T04:10:56.590Z,99.99
2023-02-05T04:13:27.789Z,99.99
2023-02-05T04:15:58.866Z,99.99
2023-02-05T04:18:29.248Z,99.99
2023-02-05T04:21:01.166Z,99.99
2023-02-05T04:23:33.689Z,99.99
2023-02-05T04:26:04.311Z,99.99
2023-02-05T04:28:40.348Z,99.99
2023-02-05T04:31:13.438Z,99.99
2023-02-05T04:33:45.269Z,99.99
2023-02-05T04:36:17.400Z,99.99
2023-02-05T04:38:47.531Z,99.99
2023-02-05T04:41:17.725Z,99.99
2023-02-05T04:43:47.846Z,99.99
2023-02-05T04:46:17.740Z,99.99
2023-02-05T04:48:47.793Z,99.99
2023-02-05T04:51:18.413Z,99.99
2023-02-05T04:53:48.749Z,99.99
2023-02-05T04:56:19.994Z,99.99
2023-02-05T04:58:50.053Z,99.99
2023-02-05T05:01:22.758Z,99.99
2023-02-05T05:03:52.962Z,99.99
2023-02-05T05:06:22.940Z,99.99
2023-02-05T05:08:52.710Z,99.99
2023-02-05T05:11:23.634Z,99.99
2023-02-05T05:13:53.710Z,99.99
2023-02-05T05:16:23.549Z,99.99
2023-02-05T05:18:54.481Z,99.99
2023-02-05T05:21:24.428Z,99.99
2023-02-05T05:23:54.385Z,99.99
2023-02-05T05:26:24.399Z,99.99
2023-02-05T05:28:57.731Z,99.99
2023-02-05T05:31:28.244Z,99.99
2023-02-05T05:33:58.226Z,99.99
2023-02-05T05:36:28.266Z,99.99
2023-02-05T05:39:18.035Z,99.99
2023-02-05T05:42:06.814Z,99.99
2023-02-05T05:44:36.732Z,99.99
2023-02-05T05:47:06.568Z,99.99
2023-02-05T05:49:36.534Z,99.99
2023-02-05T05:52:06.725Z,99.99
2023-02-05T05:54:36.661Z,99.99
2023-02-05T05:57:08.200Z,99.99
2023-02-05T05:59:38.434Z,99.99
2023-02-05T06:02:08.417Z,99.99
2023-02-05T06:04:38.403Z,99.99
2023-02-05T06:07:08.566Z,99.99
2023-02-05T06:09:39.529Z,99.99
2023-02-05T06:12:11.566Z,99.99
2023-02-05T06:14:41.686Z,99.99
2023-02-05T06:17:11.491Z,99.99
2023-02-05T06:19:41.267Z,99.99
2023-02-05T06:22:11.302Z,99.99
2023-02-05T06:24:41.421Z,99.99
2023-02-05T06:27:11.416Z,99.99
2023-02-05T06:29:41.381Z,99.99
2023-02-05T06:32:11.526Z,99.99
2023-02-05T06:34:41.475Z,99.99
2023-02-05T06:37:11.524Z,99.99
2023-02-05T06:39:42.955Z,99.99
2023-02-05T06:42:12.799Z,99.99
2023-02-05T06:44:42.888Z,99.99
2023-02-05T06:47:12.747Z,99.99
2023-02-05T06:49:42.670Z,99.99
2023-02-05T06:52:12.752Z,99.99
2023-02-05T06:54:44.658Z,99.99
2023-02-05T06:57:14.949Z,99.99
2023-02-05T06:59:44.713Z,99.99
2023-02-05T07:02:15.811Z,99.99
2023-02-05T07:04:45.899Z,99.99
2023-02-05T07:07:17.849Z,99.99
2023-02-05T07:09:48.003Z,99.99
2023-02-05T07:12:17.898Z,99.99
2023-02-05T07:14:47.972Z,99.99
2023-02-05T07:17:17.762Z,99.99
2023-02-05T07:19:47.860Z,99.99
2023-02-05T07:22:18.262Z,99.99
2023-02-05T07:24:48.361Z,99.99
2023-02-05T07:27:18.386Z,99.99
2023-02-05T07:29:49.046Z,99.99
2023-02-05T07:32:19.168Z,99.99
2023-02-05T07:34:49.120Z,99.99
2023-02-05T07:37:21.111Z,99.99
2023-02-05T07:39:50.815Z,99.99
2023-02-05T07:42:20.786Z,99.99
2023-02-05T07:44:58.234Z,99.99
2023-02-05T07:47:28.220Z,99.99
2023-02-05T07:49:58.169Z,99.99
2023-02-05T07:52:28.066Z,99.99
2023-02-05T07:54:57.852Z,99.99
2023-02-05T07:57:30.442Z,99.99
2023-02-05T08:00:00.388Z,99.99
2023-02-05T08:02:30.377Z,99.99
2023-02-05T08:05:00.326Z,99.99
2023-02-05T08:07:30.317Z,99.99
2023-02-05T08:10:00.261Z,99.99
2023-02-05T08:12:30.381Z,99.99
2023-02-05T08:15:00.388Z,99.99
2023-02-05T08:17:31.057Z,99.99
2023-02-05T08:20:08.097Z,99.99
2023-02-05T08:22:43.413Z,99.99
2023-02-05T08:25:15.892Z,99.99
2023-02-05T08:27:47.212Z,99.99
2023-02-05T08:30:19.485Z,99.99
2023-02-05T08:32:51.010Z,99.99
2023-02-05T08:35:20.982Z,99.99
2023-02-05T08:37:50.833Z,99.99
2023-02-05T08:40:22.522Z,99.99
2023-02-05T08:42:53.898Z,99.99
2023-02-05T08:45:24.359Z,99.99
2023-02-05T08:47:54.632Z,99.99
2023-02-05T08:50:24.860Z,99.99
2023-02-05T08:52:54.858Z,99.99
2023-02-05T08:55:24.846Z,99.99
2023-02-05T08:57:56.690Z,99.99
2023-02-05T09:00:26.848Z,99.99
2023-02-05T09:02:58.087Z,99.99
2023-02-05T09:05:27.935Z,99.99
2023-02-05T09:08:00.332Z,99.99
2023-02-05T09:10:30.301Z,99.99
2023-02-05T09:13:00.108Z,99.99
2023-02-05T09:15:30.996Z,99.99
2023-02-05T09:18:00.938Z,99.99
2023-02-05T09:20:30.718Z,99.99
2023-02-05T09:23:00.854Z,99.99
2023-02-05T09:25:31.242Z,99.99
2023-02-05T09:28:01.567Z,99.99
2023-02-05T09:30:31.826Z,99.99
2023-02-05T09:33:04.906Z,99.99
2023-02-05T09:35:36.134Z,99.99
2023-02-05T09:38:06.832Z,99.99
2023-02-05T09:40:40.461Z,99.99
2023-02-05T09:43:36.304Z,99.99
2023-02-05T09:46:18.313Z,99.99
2023-02-05T09:49:15.128Z,99.99
2023-02-05T09:51:48.769Z,99.99
2023-02-05T09:54:25.505Z,99.99
2023-02-05T09:56:59.496Z,99.99
2023-02-05T09:59:30.622Z,99.99
2023-02-05T10:02:05.633Z,99.99
2023-02-05T10:04:35.983Z,99.99
2023-02-05T10:07:18.564Z,99.99
2023-02-05T10:10:21.464Z,99.99
2023-02-05T10:13:12.999Z,99.99
2023-02-05T10:15:52.341Z,99.99
2023-02-05T10:18:37.014Z,99.99
2023-02-05T10:21:12.954Z,99.99
2023-02-05T10:23:53.834Z,99.99
2023-02-05T10:26:27.483Z,99.99
2023-02-05T10:29:21.368Z,99.99
2023-02-05T10:31:57.336Z,99.72
2023-02-05T10:34:56.783Z,99.49
2023-02-05T10:37:35.157Z,98.80
2023-02-05T10:40:17.538Z,97.93
2023-02-05T10:42:55.784Z,96.71
2023-02-05T10:45:31.116Z,96.66
2023-02-05T10:48:38.798Z,96.53
2023-02-05T10:51:15.178Z,94.81
2023-02-05T10:53:45.396Z,93.55
2023-02-05T10:56:19.280Z,93.15
2023-02-05T10:59:02.825Z,92.15
2023-02-05T11:01:39.919Z,90.56
2023-02-05T11:04:35.445Z,89.81
2023-02-05T11:07:07.506Z,88.26
2023-02-05T11:09:37.581Z,87.82
2023-02-05T11:12:30.799Z,88.18
2023-02-05T11:15:03.198Z,85.68
2023-02-05T11:17:37.912Z,86.62
2023-02-05T11:20:36.367Z,86.94
2023-02-05T11:23:23.098Z,87.98
2023-02-05T11:25:58.688Z,86.63
2023-02-05T11:28:33.657Z,86.60
2023-02-05T11:31:26.456Z,86.92
2023-02-05T11:34:11.572Z,85.41
2023-02-05T11:36:54.730Z,84.40
2023-02-05T11:39:37.686Z,82.01
2023-02-05T11:42:27.578Z,83.57
2023-02-05T11:45:01.655Z,81.80
2023-02-05T11:47:41.403Z,78.05
2023-02-05T11:50:27.433Z,80.80
2023-02-05T11:53:07.017Z,80.18
2023-02-05T11:55:38.137Z,78.88
2023-02-05T11:58:28.348Z,77.42
2023-02-05T12:01:25.039Z,78.55
2023-02-05T12:04:12.911Z,79.92
2023-02-05T12:06:54.618Z,80.49
2023-02-05T12:09:27.071Z,80.14
2023-02-05T12:12:12.801Z,80.58
2023-02-05T12:15:19.310Z,81.38
2023-02-05T12:18:24.165Z,85.44
2023-02-05T12:21:34.738Z,84.26
2023-02-05T12:24:51.917Z,84.12
2023-02-05T12:27:27.326Z,80.97
2023-02-05T12:29:59.150Z,79.40
2023-02-05T12:33:02.287Z,81.66
2023-02-05T12:35:48.760Z,84.75
2023-02-05T12:38:42.442Z,76.30
2023-02-05T12:41:18.301Z,76.79
2023-02-05T12:43:52.302Z,76.28
2023-02-05T12:47:09.902Z,80.67
2023-02-05T12:49:58.613Z,80.21
2023-02-05T12:52:44.092Z,76.88
2023-02-05T12:55:39.116Z,75.19
2023-02-05T12:58:15.176Z,75.04
2023-02-05T13:00:59.292Z,74.85
2023-02-05T13:03:39.395Z,73.26
2023-02-05T13:06:18.550Z,77.55
2023-02-05T13:08:54.159Z,76.72
2023-02-05T13:11:28.593Z,74.69
2023-02-05T13:14:07.891Z,72.69
2023-02-05T13:16:51.508Z,71.70
2023-02-05T13:19:24.622Z,69.46
2023-02-05T13:22:16.847Z,70.27
2023-02-05T13:25:11.383Z,69.51
2023-02-05T13:28:11.286Z,67.76
2023-02-05T13:30:48.165Z,67.22
2023-02-05T13:33:19.502Z,67.51
2023-02-05T13:36:30.337Z,74.15
2023-02-05T13:39:03.189Z,74.75
2023-02-05T13:42:00.189Z,74.77
2023-02-05T13:44:39.161Z,74.06
2023-02-05T13:47:56.314Z,82.46
2023-02-05T13:50:37.653Z,79.82
2023-02-05T13:53:30.573Z,82.48
2023-02-05T13:56:38.501Z,77.41
2023-02-05T13:59:21.818Z,77.57
2023-02-05T14:02:01.409Z,75.90
2023-02-05T14:04:54.432Z,76.82
2023-02-05T14:08:04.932Z,72.87
2023-02-05T14:10:43.426Z,71.39
2023-02-05T14:13:36.080Z,69.42
2023-02-05T14:16:27.647Z,71.41
2023-02-05T14:19:03.473Z,64.92
2023-02-05T14:21:34.640Z,63.53
2023-02-05T14:24:30.063Z,66.19
2023-02-05T14:27:01.836Z,60.39
2023-02-05T14:29:52.568Z,71.61
2023-02-05T14:32:30.828Z,67.10
2023-02-05T14:35:30.688Z,68.37
2023-02-05T14:38:34.400Z,63.49
2023-02-05T14:41:21.215Z,62.57
2023-02-05T14:44:01.810Z,62.69
2023-02-05T14:46:34.249Z,59.02
2023-02-05T14:49:06.958Z,58.30
2023-02-05T14:51:42.978Z,59.82
2023-02-05T14:54:17.798Z,60.42
2023-02-05T14:56:53.241Z,60.87
2023-02-05T14:59:38.265Z,59.95
2023-02-05T15:02:46.365Z,62.50
2023-02-05T15:05:31.014Z,62.58
2023-02-05T15:08:20.707Z,61.47
2023-02-05T15:11:04.776Z,62.38
2023-02-05T15:13:35.210Z,58.49
2023-02-05T15:16:15.332Z,58.90
2023-02-05T15:19:00.998Z,60.22
2023-02-05T15:21:40.650Z,55.93
2023-02-05T15:24:29.411Z,57.81
2023-02-05T15:27:04.264Z,58.41
2023-02-05T15:29:43.112Z,60.35
2023-02-05T15:32:44.690Z,63.04
2023-02-05T15:35:23.269Z,60.50
2023-02-05T15:38:21.872Z,59.27
2023-02-05T15:40:52.989Z,55.17
2023-02-05T15:43:26.329Z,56.53
2023-02-05T15:46:09.009Z,58.15
2023-02-05T15:48:41.941Z,55.88
2023-02-05T15:51:20.468Z,56.79
2023-02-05T15:53:52.580Z,60.78
2023-02-05T15:56:22.797Z,59.94
2023-02-05T15:59:03.383Z,59.56
2023-02-05T16:01:47.781Z,57.17
2023-02-05T16:04:39.394Z,56.84
2023-02-05T16:07:20.283Z,56.42
2023-02-05T16:09:53.983Z,60.13
2023-02-05T16:12:25.713Z,59.95
2023-02-05T16:15:15.194Z,61.97
2023-02-05T16:17:50.128Z,63.25
2023-02-05T16:20:34.844Z,65.99
2023-02-05T16:23:38.286Z,65.54
2023-02-05T16:26:30.780Z,61.09
2023-02-05T16:29:07.674Z,58.17
2023-02-05T16:31:40.174Z,55.51
2023-02-05T16:34:20.313Z,54.47
2023-02-05T16:36:53.391Z,57.49
2023-02-05T16:39:49.416Z,59.53
2023-02-05T16:42:34.362Z,60.52
2023-02-05T16:45:10.300Z,58.37
2023-02-05T16:47:40.561Z,56.11
2023-02-05T16:50:37.940Z,59.13
2023-02-05T16:53:22.634Z,57.93
2023-02-05T16:56:03.672Z,54.32
2023-02-05T16:58:45.679Z,56.52
2023-02-05T17:01:23.185Z,55.98
2023-02-05T17:03:53.572Z,57.37
2023-02-05T17:06:24.590Z,58.50
2023-02-05T17:08:57.019Z,58.47
2023-02-05T17:11:44.086Z,59.83
2023-02-05T17:14:36.757Z,58.60
2023-02-05T17:17:27.629Z,59.28
2023-02-05T17:20:07.891Z,58.94
2023-02-05T17:22:38.277Z,56.68
2023-02-05T17:25:09.006Z,56.87
2023-02-05T17:27:40.266Z,57.01
2023-02-05T17:30:17.832Z,59.31
2023-02-05T17:32:49.028Z,59.31
2023-02-05T17:35:20.462Z,58.25
2023-02-05T17:37:52.580Z,58.12
2023-02-05T17:40:22.998Z,59.37
2023-02-05T17:42:53.062Z,59.22
2023-02-05T17:45:34.052Z,61.60
2023-02-05T17:48:05.284Z,59.31
2023-02-05T17:50:37.040Z,58.82
2023-02-05T17:53:07.365Z,58.74
2023-02-05T17:55:37.496Z,58.85
2023-02-05T17:58:08.457Z,58.42
2023-02-05T18:00:38.676Z,57.97
2023-02-05T18:03:08.707Z,54.96
2023-02-05T18:05:38.718Z,55.70
2023-02-05T18:08:08.938Z,55.82
2023-02-05T18:10:38.848Z,55.78
2023-02-05T18:13:08.696Z,58.66
2023-02-05T18:15:39.011Z,60.16
2023-02-05T18:18:09.057Z,59.45
2023-02-05T18:20:40.401Z,57.91
2023-02-05T18:23:12.390Z,56.61
2023-02-05T18:25:42.688Z,57.24
2023-02-05T18:28:12.800Z,56.97
2023-02-05T18:30:43.069Z,56.97
2023-02-05T18:33:15.443Z,56.21
2023-02-05T18:35:46.423Z,58.30
2023-02-05T18:38:19.514Z,56.60
2023-02-05T18:40:49.527Z,56.61
2023-02-05T18:43:20.150Z,59.15
2023-02-05T18:45:50.270Z,57.79
2023-02-05T18:48:20.384Z,58.35
2023-02-05T18:50:50.205Z,58.16
2023-02-05T18:53:20.167Z,58.74
2023-02-05T18:56:00.413Z,59.15
2023-02-05T18:58:31.332Z,58.14
2023-02-05T19:01:12.107Z,59.72
2023-02-05T19:03:43.117Z,61.16
2023-02-05T19:06:15.864Z,60.66
2023-02-05T19:08:46.195Z,60.34
2023-02-05T19:11:21.388Z,59.15
2023-02-05T19:14:15.640Z,60.93
2023-02-05T19:16:46.132Z,60.35
2023-02-05T19:19:18.956Z,59.96
2023-02-05T19:21:58.678Z,59.41
2023-02-05T19:24:29.098Z,60.24
2023-02-05T19:27:02.647Z,63.71
2023-02-05T19:29:36.134Z,63.61
2023-02-05T19:32:07.878Z,60.99
2023-02-05T19:34:41.241Z,63.23
2023-02-05T19:37:12.324Z,62.83
2023-02-05T19:39:42.464Z,63.23
2023-02-05T19:42:12.296Z,63.42
2023-02-05T19:44:42.342Z,64.72
2023-02-05T19:47:13.983Z,64.72
2023-02-05T19:49:43.612Z,65.22
2023-02-05T19:52:13.412Z,64.81
2023-02-05T19:54:43.390Z,64.51
2023-02-05T19:57:13.205Z,64.23
2023-02-05T19:59:43.420Z,62.46
2023-02-05T20:02:20.292Z,62.68
2023-02-05T20:04:50.500Z,62.53
2023-02-05T20:07:20.387Z,63.80
2023-02-05T20:09:51.386Z,64.36
2023-02-05T20:12:21.499Z,65.24
2023-02-05T20:14:51.315Z,66.04
2023-02-05T20:17:21.284Z,65.45
2023-02-05T20:19:55.182Z,65.22
2023-02-05T20:22:28.218Z,64.42
2023-02-05T20:24:58.417Z,64.66
2023-02-05T20:27:28.509Z,63.73
2023-02-05T20:30:16.950Z,66.07
2023-02-05T20:32:47.358Z,64.05
2023-02-05T20:35:17.672Z,64.01
2023-02-05T20:37:47.667Z,66.18
2023-02-05T20:40:17.749Z,66.45
2023-02-05T20:42:49.047Z,67.09
2023-02-05T20:45:19.240Z,66.01
2023-02-05T20:47:49.388Z,66.61
2023-02-05T20:50:19.314Z,66.59
2023-02-05T20:52:49.263Z,67.10
2023-02-05T20:55:19.562Z,68.12
2023-02-05T20:57:49.385Z,69.49
2023-02-05T21:00:23.088Z,67.10
2023-02-05T21:02:54.131Z,67.56
2023-02-05T21:05:24.734Z,68.27
2023-02-05T21:07:55.552Z,68.53
2023-02-05T21:10:25.523Z,68.45
2023-02-05T21:12:55.330Z,69.19
2023-02-05T21:15:25.506Z,69.31
2023-02-05T21:17:55.478Z,69.21
2023-02-05T21:20:25.471Z,69.95
2023-02-05T21:22:55.612Z,72.26
2023-02-05T21:25:25.781Z,73.24
2023-02-05T21:27:55.956Z,74.20
2023-02-05T21:30:26.018Z,75.18
2023-02-05T21:32:57.662Z,76.41
2023-02-05T21:35:27.899Z,77.76
2023-02-05T21:37:58.097Z,73.05
2023-02-05T21:40:28.097Z,74.70
2023-02-05T21:42:58.066Z,77.70
2023-02-05T21:45:28.282Z,77.67
2023-02-05T21:47:58.255Z,78.55
2023-02-05T21:50:28.306Z,80.34
2023-02-05T21:52:59.613Z,81.11
2023-02-05T21:55:29.470Z,79.20
2023-02-05T21:57:59.806Z,81.40
2023-02-05T22:00:29.853Z,83.84
2023-02-05T22:02:59.966Z,84.79
2023-02-05T22:05:29.949Z,84.43
2023-02-05T22:07:59.925Z,85.10
2023-02-05T22:10:30.078Z,85.97
2023-02-05T22:13:00.069Z,87.00
2023-02-05T22:15:30.266Z,87.63
2023-02-05T22:18:00.415Z,88.33
2023-02-05T22:20:30.463Z,89.63
2023-02-05T22:23:00.450Z,89.74
2023-02-05T22:25:30.747Z,90.17
2023-02-05T22:28:00.859Z,90.58
2023-02-05T22:30:30.959Z,91.12
2023-02-05T22:33:01.201Z,91.81
2023-02-05T22:35:31.269Z,92.06
2023-02-05T22:38:01.247Z,92.49
2023-02-05T22:40:31.488Z,92.67
2023-02-05T22:43:01.515Z,93.39
2023-02-05T22:45:32.875Z,93.84
2023-02-05T22:48:03.070Z,95.35
2023-02-05T22:50:33.090Z,95.81
2023-02-05T22:53:03.123Z,95.85
2023-02-05T22:55:35.346Z,96.03
2023-02-05T22:58:06.245Z,96.13
2023-02-05T23:00:36.617Z,95.99
2023-02-05T23:03:06.634Z,96.71
2023-02-05T23:05:36.740Z,96.74
2023-02-05T23:08:07.062Z,96.85
2023-02-05T23:10:37.144Z,97.00
2023-02-05T23:13:07.968Z,97.18
2023-02-05T23:15:38.331Z,97.45
2023-02-05T23:18:08.651Z,97.36
2023-02-05T23:20:41.826Z,97.40
2023-02-05T23:23:11.941Z,97.92
2023-02-05T23:25:42.037Z,98.31
2023-02-05T23:28:12.125Z,98.73
2023-02-05T23:30:42.236Z,98.45
2023-02-05T23:33:12.377Z,99.15
2023-02-05T23:35:45.069Z,99.26
2023-02-05T23:38:15.099Z,99.56
2023-02-05T23:40:45.128Z,99.50
2023-02-05T23:43:15.215Z,99.84
2023-02-05T23:45:45.555Z,99.89
2023-02-05T23:48:15.679Z,99.99
2023-02-05T23:50:46.651Z,99.99
2023-02-05T23:53:16.657Z,99.99
2023-02-05T23:55:46.721Z,99.99
2023-02-05T23:58:17.368Z,99.99
